sensor_id;sensor_type;location;lat;lon;timestamp;P1;durP1;ratioP1;P2;durP2;ratioP2
39674;SDS011;27790;50.840;4.386;2023-10-09T00:00:11;12.77;;;5.00;;
39674;SDS011;27790;50.840;4.386;2023-10-09T00:02:58;10.25;;;6.32;;
39674;SDS011;27790;50.840;4.386;2023-10-09T00:05:28;11.70;;;6.07;;
39674;SDS011;27790;50.840;4.386;2023-10-09T00:08:18;10.55;;;5.85;;
39674;SDS011;27790;50.840;4.386;2023-10-09T00:10:46;9.32;;;6.05;;
39674;SDS011;27790;50.840;4.386;2023-10-09T00:13:19;15.70;;;6.05;;
39674;SDS011;27790;50.840;4.386;2023-10-09T00:15:58;12.50;;;7.60;;
39674;SDS011;27790;50.840;4.386;2023-10-09T00:18:39;14.57;;;6.22;;
39674;SDS011;27790;50.840;4.386;2023-10-09T00:21:13;12.38;;;6.68;;
39674;SDS011;27790;50.840;4.386;2023-10-09T00:23:45;11.20;;;5.80;;
39674;SDS011;27790;50.840;4.386;2023-10-09T00:26:19;10.63;;;6.05;;
39674;SDS011;27790;50.840;4.386;2023-10-09T00:28:45;12.45;;;6.15;;
39674;SDS011;27790;50.840;4.386;2023-10-09T00:31:15;16.58;;;6.47;;
39674;SDS011;27790;50.840;4.386;2023-10-09T00:33:43;11.38;;;7.00;;
39674;SDS011;27790;50.840;4.386;2023-10-09T00:36:09;9.13;;;5.93;;
39674;SDS011;27790;50.840;4.386;2023-10-09T00:38:38;11.27;;;6.10;;
39674;SDS011;27790;50.840;4.386;2023-10-09T00:41:14;12.98;;;6.50;;
39674;SDS011;27790;50.840;4.386;2023-10-09T00:43:45;13.80;;;6.85;;
39674;SDS011;27790;50.840;4.386;2023-10-09T00:46:14;14.32;;;5.95;;
39674;SDS011;27790;50.840;4.386;2023-10-09T00:48:44;8.10;;;6.10;;
39674;SDS011;27790;50.840;4.386;2023-10-09T00:51:13;11.55;;;6.20;;
39674;SDS011;27790;50.840;4.386;2023-10-09T00:54:05;10.88;;;6.00;;
39674;SDS011;27790;50.840;4.386;2023-10-09T00:56:38;10.32;;;5.95;;
39674;SDS011;27790;50.840;4.386;2023-10-09T00:59:08;10.25;;;5.70;;
39674;SDS011;27790;50.840;4.386;2023-10-09T01:01:39;15.95;;;5.97;;
39674;SDS011;27790;50.840;4.386;2023-10-09T01:04:09;12.15;;;6.15;;
39674;SDS011;27790;50.840;4.386;2023-10-09T01:06:38;10.52;;;6.88;;
39674;SDS011;27790;50.840;4.386;2023-10-09T01:11:36;10.15;;;6.32;;
39674;SDS011;27790;50.840;4.386;2023-10-09T01:14:13;25.88;;;6.70;;
39674;SDS011;27790;50.840;4.386;2023-10-09T01:16:40;14.23;;;6.03;;
39674;SDS011;27790;50.840;4.386;2023-10-09T01:19:09;11.30;;;7.05;;
39674;SDS011;27790;50.840;4.386;2023-10-09T01:21:48;11.45;;;7.13;;
39674;SDS011;27790;50.840;4.386;2023-10-09T01:24:15;11.65;;;6.75;;
39674;SDS011;27790;50.840;4.386;2023-10-09T01:26:41;10.30;;;7.10;;
39674;SDS011;27790;50.840;4.386;2023-10-09T01:29:19;11.27;;;6.78;;
39674;SDS011;27790;50.840;4.386;2023-10-09T01:31:47;17.55;;;7.05;;
39674;SDS011;27790;50.840;4.386;2023-10-09T01:34:19;12.93;;;6.82;;
39674;SDS011;27790;50.840;4.386;2023-10-09T01:37:07;10.02;;;7.13;;
39674;SDS011;27790;50.840;4.386;2023-10-09T01:39:50;13.07;;;7.22;;
39674;SDS011;27790;50.840;4.386;2023-10-09T01:45:09;14.57;;;6.97;;
39674;SDS011;27790;50.840;4.386;2023-10-09T01:47:41;17.00;;;7.35;;
39674;SDS011;27790;50.840;4.386;2023-10-09T01:50:11;13.40;;;7.65;;
39674;SDS011;27790;50.840;4.386;2023-10-09T01:52:44;13.75;;;7.63;;
39674;SDS011;27790;50.840;4.386;2023-10-09T01:55:10;17.23;;;7.32;;
39674;SDS011;27790;50.840;4.386;2023-10-09T01:57:52;13.40;;;7.03;;
39674;SDS011;27790;50.840;4.386;2023-10-09T02:00:18;10.85;;;6.32;;
39674;SDS011;27790;50.840;4.386;2023-10-09T02:02:48;8.93;;;6.38;;
39674;SDS011;27790;50.840;4.386;2023-10-09T02:05:15;14.50;;;6.97;;
39674;SDS011;27790;50.840;4.386;2023-10-09T02:07:41;16.17;;;6.43;;
39674;SDS011;27790;50.840;4.386;2023-10-09T02:10:16;13.80;;;6.90;;
39674;SDS011;27790;50.840;4.386;2023-10-09T02:12:50;18.73;;;7.28;;
39674;SDS011;27790;50.840;4.386;2023-10-09T02:15:22;10.15;;;6.32;;
39674;SDS011;27790;50.840;4.386;2023-10-09T02:18:05;11.13;;;6.75;;
39674;SDS011;27790;50.840;4.386;2023-10-09T02:20:47;11.23;;;6.18;;
39674;SDS011;27790;50.840;4.386;2023-10-09T02:23:30;11.18;;;6.47;;
39674;SDS011;27790;50.840;4.386;2023-10-09T02:26:11;10.90;;;6.32;;
39674;SDS011;27790;50.840;4.386;2023-10-09T02:28:56;12.25;;;6.13;;
39674;SDS011;27790;50.840;4.386;2023-10-09T02:31:25;14.32;;;6.57;;
39674;SDS011;27790;50.840;4.386;2023-10-09T02:34:00;14.57;;;6.35;;
39674;SDS011;27790;50.840;4.386;2023-10-09T02:36:30;14.25;;;6.72;;
39674;SDS011;27790;50.840;4.386;2023-10-09T02:38:55;10.48;;;6.55;;
39674;SDS011;27790;50.840;4.386;2023-10-09T02:41:21;13.23;;;6.40;;
39674;SDS011;27790;50.840;4.386;2023-10-09T02:43:53;13.18;;;6.45;;
39674;SDS011;27790;50.840;4.386;2023-10-09T02:46:20;11.95;;;6.90;;
39674;SDS011;27790;50.840;4.386;2023-10-09T02:48:54;15.60;;;7.13;;
39674;SDS011;27790;50.840;4.386;2023-10-09T02:51:22;12.43;;;6.85;;
39674;SDS011;27790;50.840;4.386;2023-10-09T02:53:52;12.00;;;6.88;;
39674;SDS011;27790;50.840;4.386;2023-10-09T02:56:18;14.70;;;6.65;;
39674;SDS011;27790;50.840;4.386;2023-10-09T02:58:52;11.35;;;6.50;;
39674;SDS011;27790;50.840;4.386;2023-10-09T03:01:17;13.68;;;6.55;;
39674;SDS011;27790;50.840;4.386;2023-10-09T03:03:44;11.63;;;6.20;;
39674;SDS011;27790;50.840;4.386;2023-10-09T03:06:10;10.90;;;7.35;;
39674;SDS011;27790;50.840;4.386;2023-10-09T03:08:37;22.52;;;8.27;;
39674;SDS011;27790;50.840;4.386;2023-10-09T03:11:06;11.10;;;6.88;;
39674;SDS011;27790;50.840;4.386;2023-10-09T03:13:38;13.30;;;6.90;;
39674;SDS011;27790;50.840;4.386;2023-10-09T03:16:10;9.50;;;7.55;;
39674;SDS011;27790;50.840;4.386;2023-10-09T03:18:41;11.18;;;6.95;;
39674;SDS011;27790;50.840;4.386;2023-10-09T03:21:07;12.57;;;6.35;;
39674;SDS011;27790;50.840;4.386;2023-10-09T03:23:34;11.50;;;7.25;;
39674;SDS011;27790;50.840;4.386;2023-10-09T03:25:59;9.90;;;6.50;;
39674;SDS011;27790;50.840;4.386;2023-10-09T03:28:25;16.27;;;7.95;;
39674;SDS011;27790;50.840;4.386;2023-10-09T03:30:51;14.98;;;7.68;;
39674;SDS011;27790;50.840;4.386;2023-10-09T03:33:18;13.45;;;6.32;;
39674;SDS011;27790;50.840;4.386;2023-10-09T03:35:44;17.75;;;7.60;;
39674;SDS011;27790;50.840;4.386;2023-10-09T03:38:09;10.50;;;6.72;;
39674;SDS011;27790;50.840;4.386;2023-10-09T03:40:42;12.85;;;7.53;;
39674;SDS011;27790;50.840;4.386;2023-10-09T03:43:08;12.38;;;7.72;;
39674;SDS011;27790;50.840;4.386;2023-10-09T03:45:36;14.05;;;7.20;;
39674;SDS011;27790;50.840;4.386;2023-10-09T03:48:04;10.63;;;6.38;;
39674;SDS011;27790;50.840;4.386;2023-10-09T03:50:45;11.98;;;6.75;;
39674;SDS011;27790;50.840;4.386;2023-10-09T03:53:12;17.90;;;6.82;;
39674;SDS011;27790;50.840;4.386;2023-10-09T03:55:39;12.85;;;6.85;;
39674;SDS011;27790;50.840;4.386;2023-10-09T03:58:08;11.18;;;7.78;;
39674;SDS011;27790;50.840;4.386;2023-10-09T04:00:37;12.50;;;6.80;;
39674;SDS011;27790;50.840;4.386;2023-10-09T04:03:14;15.88;;;7.10;;
39674;SDS011;27790;50.840;4.386;2023-10-09T04:05:40;9.82;;;6.57;;
39674;SDS011;27790;50.840;4.386;2023-10-09T04:08:11;11.80;;;7.70;;
39674;SDS011;27790;50.840;4.386;2023-10-09T04:10:44;13.50;;;6.50;;
39674;SDS011;27790;50.840;4.386;2023-10-09T04:13:16;13.20;;;7.40;;
39674;SDS011;27790;50.840;4.386;2023-10-09T04:15:47;11.90;;;7.07;;
39674;SDS011;27790;50.840;4.386;2023-10-09T04:18:18;12.93;;;6.28;;
39674;SDS011;27790;50.840;4.386;2023-10-09T04:20:45;15.82;;;7.20;;
39674;SDS011;27790;50.840;4.386;2023-10-09T04:23:30;17.35;;;6.88;;
39674;SDS011;27790;50.840;4.386;2023-10-09T04:26:18;15.10;;;7.53;;
39674;SDS011;27790;50.840;4.386;2023-10-09T04:28:45;11.77;;;7.70;;
39674;SDS011;27790;50.840;4.386;2023-10-09T04:31:16;16.10;;;8.02;;
39674;SDS011;27790;50.840;4.386;2023-10-09T04:33:45;11.90;;;7.72;;
39674;SDS011;27790;50.840;4.386;2023-10-09T04:36:23;16.45;;;7.57;;
39674;SDS011;27790;50.840;4.386;2023-10-09T04:38:53;20.02;;;8.40;;
39674;SDS011;27790;50.840;4.386;2023-10-09T04:41:28;15.57;;;9.35;;
39674;SDS011;27790;50.840;4.386;2023-10-09T04:43:57;14.55;;;8.77;;
39674;SDS011;27790;50.840;4.386;2023-10-09T04:46:47;17.58;;;8.32;;
39674;SDS011;27790;50.840;4.386;2023-10-09T04:49:35;12.93;;;8.98;;
39674;SDS011;27790;50.840;4.386;2023-10-09T04:52:15;14.88;;;8.75;;
39674;SDS011;27790;50.840;4.386;2023-10-09T04:55:03;15.90;;;8.60;;
39674;SDS011;27790;50.840;4.386;2023-10-09T04:57:30;14.35;;;8.32;;
39674;SDS011;27790;50.840;4.386;2023-10-09T05:00:03;17.02;;;8.20;;
39674;SDS011;27790;50.840;4.386;2023-10-09T05:02:47;14.10;;;8.30;;
39674;SDS011;27790;50.840;4.386;2023-10-09T05:05:20;17.05;;;8.30;;
39674;SDS011;27790;50.840;4.386;2023-10-09T05:08:05;20.23;;;8.85;;
39674;SDS011;27790;50.840;4.386;2023-10-09T05:10:50;21.35;;;9.60;;
39674;SDS011;27790;50.840;4.386;2023-10-09T05:13:31;14.05;;;8.32;;
39674;SDS011;27790;50.840;4.386;2023-10-09T05:16:03;19.73;;;9.13;;
39674;SDS011;27790;50.840;4.386;2023-10-09T05:18:29;11.88;;;8.73;;
39674;SDS011;27790;50.840;4.386;2023-10-09T05:21:01;15.63;;;8.57;;
39674;SDS011;27790;50.840;4.386;2023-10-09T05:23:45;19.77;;;9.40;;
39674;SDS011;27790;50.840;4.386;2023-10-09T05:26:14;17.90;;;10.45;;
39674;SDS011;27790;50.840;4.386;2023-10-09T05:28:58;16.58;;;9.52;;
39674;SDS011;27790;50.840;4.386;2023-10-09T05:31:24;18.55;;;8.57;;
39674;SDS011;27790;50.840;4.386;2023-10-09T05:34:18;13.35;;;8.48;;
39674;SDS011;27790;50.840;4.386;2023-10-09T05:36:46;19.42;;;9.40;;
39674;SDS011;27790;50.840;4.386;2023-10-09T05:39:13;18.92;;;9.00;;
39674;SDS011;27790;50.840;4.386;2023-10-09T05:41:43;12.48;;;8.25;;
39674;SDS011;27790;50.840;4.386;2023-10-09T05:44:24;22.60;;;10.55;;
39674;SDS011;27790;50.840;4.386;2023-10-09T05:47:09;18.25;;;8.35;;
39674;SDS011;27790;50.840;4.386;2023-10-09T05:52:33;13.88;;;8.90;;
39674;SDS011;27790;50.840;4.386;2023-10-09T05:55:05;15.80;;;9.40;;
39674;SDS011;27790;50.840;4.386;2023-10-09T05:57:53;16.65;;;9.00;;
39674;SDS011;27790;50.840;4.386;2023-10-09T06:00:38;19.05;;;7.68;;
39674;SDS011;27790;50.840;4.386;2023-10-09T06:03:23;18.65;;;8.85;;
39674;SDS011;27790;50.840;4.386;2023-10-09T06:08:21;22.83;;;9.40;;
39674;SDS011;27790;50.840;4.386;2023-10-09T06:10:52;20.58;;;9.40;;
39674;SDS011;27790;50.840;4.386;2023-10-09T06:13:31;17.20;;;8.70;;
39674;SDS011;27790;50.840;4.386;2023-10-09T06:16:02;19.00;;;9.15;;
39674;SDS011;27790;50.840;4.386;2023-10-09T06:18:45;21.85;;;10.07;;
39674;SDS011;27790;50.840;4.386;2023-10-09T06:21:19;24.92;;;10.57;;
39674;SDS011;27790;50.840;4.386;2023-10-09T06:24:08;19.13;;;9.82;;
39674;SDS011;27790;50.840;4.386;2023-10-09T06:26:35;17.02;;;9.52;;
39674;SDS011;27790;50.840;4.386;2023-10-09T06:29:00;24.88;;;10.27;;
39674;SDS011;27790;50.840;4.386;2023-10-09T06:31:42;20.08;;;10.20;;
39674;SDS011;27790;50.840;4.386;2023-10-09T06:34:23;18.13;;;9.48;;
39674;SDS011;27790;50.840;4.386;2023-10-09T06:36:58;22.55;;;10.00;;
39674;SDS011;27790;50.840;4.386;2023-10-09T06:39:31;21.05;;;10.75;;
39674;SDS011;27790;50.840;4.386;2023-10-09T06:42:25;25.52;;;10.98;;
39674;SDS011;27790;50.840;4.386;2023-10-09T06:45:08;27.50;;;11.23;;
39674;SDS011;27790;50.840;4.386;2023-10-09T06:47:47;15.68;;;9.75;;
39674;SDS011;27790;50.840;4.386;2023-10-09T06:50:33;21.75;;;10.05;;
39674;SDS011;27790;50.840;4.386;2023-10-09T06:53:18;15.50;;;9.10;;
39674;SDS011;27790;50.840;4.386;2023-10-09T06:55:44;16.77;;;9.57;;
39674;SDS011;27790;50.840;4.386;2023-10-09T06:58:23;25.88;;;10.65;;
39674;SDS011;27790;50.840;4.386;2023-10-09T07:00:52;20.60;;;10.88;;
39674;SDS011;27790;50.840;4.386;2023-10-09T07:03:21;25.98;;;10.55;;
39674;SDS011;27790;50.840;4.386;2023-10-09T07:06:07;21.80;;;10.10;;
39674;SDS011;27790;50.840;4.386;2023-10-09T07:08:56;24.48;;;11.20;;
39674;SDS011;27790;50.840;4.386;2023-10-09T07:11:41;28.27;;;10.98;;
39674;SDS011;27790;50.840;4.386;2023-10-09T07:17:09;25.50;;;10.52;;
39674;SDS011;27790;50.840;4.386;2023-10-09T07:19:41;25.42;;;10.82;;
39674;SDS011;27790;50.840;4.386;2023-10-09T07:22:13;21.90;;;11.18;;
39674;SDS011;27790;50.840;4.386;2023-10-09T07:24:46;24.95;;;11.85;;
39674;SDS011;27790;50.840;4.386;2023-10-09T07:27:29;24.85;;;12.68;;
39674;SDS011;27790;50.840;4.386;2023-10-09T07:30:14;23.98;;;11.65;;
39674;SDS011;27790;50.840;4.386;2023-10-09T07:32:57;24.30;;;11.32;;
39674;SDS011;27790;50.840;4.386;2023-10-09T07:35:33;25.73;;;11.50;;
39674;SDS011;27790;50.840;4.386;2023-10-09T07:38:08;24.33;;;11.75;;
39674;SDS011;27790;50.840;4.386;2023-10-09T07:40:55;29.83;;;12.93;;
39674;SDS011;27790;50.840;4.386;2023-10-09T07:43:42;24.77;;;11.70;;
39674;SDS011;27790;50.840;4.386;2023-10-09T07:46:09;17.88;;;11.77;;
39674;SDS011;27790;50.840;4.386;2023-10-09T07:48:55;17.20;;;11.30;;
39674;SDS011;27790;50.840;4.386;2023-10-09T07:51:21;23.65;;;11.77;;
39674;SDS011;27790;50.840;4.386;2023-10-09T07:53:51;26.15;;;12.07;;
39674;SDS011;27790;50.840;4.386;2023-10-09T07:56:32;23.33;;;10.75;;
39674;SDS011;27790;50.840;4.386;2023-10-09T07:59:11;17.83;;;10.07;;
39674;SDS011;27790;50.840;4.386;2023-10-09T08:01:40;15.48;;;10.23;;
39674;SDS011;27790;50.840;4.386;2023-10-09T08:04:20;26.87;;;10.90;;
39674;SDS011;27790;50.840;4.386;2023-10-09T08:07:09;26.08;;;10.80;;
39674;SDS011;27790;50.840;4.386;2023-10-09T08:09:44;29.50;;;12.88;;
39674;SDS011;27790;50.840;4.386;2023-10-09T08:12:36;20.67;;;10.25;;
39674;SDS011;27790;50.840;4.386;2023-10-09T08:15:13;32.80;;;11.75;;
39674;SDS011;27790;50.840;4.386;2023-10-09T08:17:46;21.20;;;10.63;;
39674;SDS011;27790;50.840;4.386;2023-10-09T08:20:25;16.85;;;11.02;;
39674;SDS011;27790;50.840;4.386;2023-10-09T08:22:55;24.67;;;12.85;;
39674;SDS011;27790;50.840;4.386;2023-10-09T08:25:21;19.20;;;11.30;;
39674;SDS011;27790;50.840;4.386;2023-10-09T08:27:59;19.20;;;11.20;;
39674;SDS011;27790;50.840;4.386;2023-10-09T08:30:47;26.38;;;10.95;;
39674;SDS011;27790;50.840;4.386;2023-10-09T08:33:28;32.83;;;11.02;;
39674;SDS011;27790;50.840;4.386;2023-10-09T08:36:10;23.17;;;11.23;;
39674;SDS011;27790;50.840;4.386;2023-10-09T08:38:39;21.25;;;12.25;;
39674;SDS011;27790;50.840;4.386;2023-10-09T08:41:07;23.83;;;10.27;;
39674;SDS011;27790;50.840;4.386;2023-10-09T08:43:52;17.08;;;10.32;;
39674;SDS011;27790;50.840;4.386;2023-10-09T08:46:22;21.35;;;11.27;;
39674;SDS011;27790;50.840;4.386;2023-10-09T08:48:51;20.52;;;11.27;;
39674;SDS011;27790;50.840;4.386;2023-10-09T08:51:30;25.13;;;11.52;;
39674;SDS011;27790;50.840;4.386;2023-10-09T08:53:56;24.35;;;9.77;;
39674;SDS011;27790;50.840;4.386;2023-10-09T08:56:23;19.90;;;10.18;;
39674;SDS011;27790;50.840;4.386;2023-10-09T08:58:52;22.67;;;10.05;;
39674;SDS011;27790;50.840;4.386;2023-10-09T09:01:19;17.83;;;9.82;;
39674;SDS011;27790;50.840;4.386;2023-10-09T09:03:46;23.27;;;10.40;;
39674;SDS011;27790;50.840;4.386;2023-10-09T09:06:13;22.13;;;11.32;;
39674;SDS011;27790;50.840;4.386;2023-10-09T09:08:39;20.75;;;10.90;;
39674;SDS011;27790;50.840;4.386;2023-10-09T09:11:09;21.80;;;11.27;;
39674;SDS011;27790;50.840;4.386;2023-10-09T09:13:42;17.80;;;11.25;;
39674;SDS011;27790;50.840;4.386;2023-10-09T09:16:31;25.10;;;11.35;;
39674;SDS011;27790;50.840;4.386;2023-10-09T09:19:02;22.75;;;11.07;;
39674;SDS011;27790;50.840;4.386;2023-10-09T09:21:34;21.60;;;11.18;;
39674;SDS011;27790;50.840;4.386;2023-10-09T09:24:24;23.88;;;10.85;;
39674;SDS011;27790;50.840;4.386;2023-10-09T09:26:51;18.80;;;11.38;;
39674;SDS011;27790;50.840;4.386;2023-10-09T09:32:12;24.92;;;11.25;;
39674;SDS011;27790;50.840;4.386;2023-10-09T09:34:49;20.40;;;10.90;;
39674;SDS011;27790;50.840;4.386;2023-10-09T09:37:26;18.23;;;11.27;;
39674;SDS011;27790;50.840;4.386;2023-10-09T09:40:02;20.33;;;11.32;;
39674;SDS011;27790;50.840;4.386;2023-10-09T09:42:41;23.27;;;11.52;;
39674;SDS011;27790;50.840;4.386;2023-10-09T09:45:10;17.80;;;10.55;;
39674;SDS011;27790;50.840;4.386;2023-10-09T09:47:37;30.73;;;11.23;;
39674;SDS011;27790;50.840;4.386;2023-10-09T09:50:04;23.83;;;11.05;;
39674;SDS011;27790;50.840;4.386;2023-10-09T09:52:49;17.17;;;10.07;;
39674;SDS011;27790;50.840;4.386;2023-10-09T09:55:18;21.70;;;10.60;;
39674;SDS011;27790;50.840;4.386;2023-10-09T09:57:48;21.25;;;10.27;;
39674;SDS011;27790;50.840;4.386;2023-10-09T10:00:17;21.00;;;10.80;;
39674;SDS011;27790;50.840;4.386;2023-10-09T10:03:18;20.52;;;11.05;;
39674;SDS011;27790;50.840;4.386;2023-10-09T10:06:04;25.15;;;11.15;;
39674;SDS011;27790;50.840;4.386;2023-10-09T10:08:38;28.33;;;12.13;;
39674;SDS011;27790;50.840;4.386;2023-10-09T10:11:06;19.77;;;10.55;;
39674;SDS011;27790;50.840;4.386;2023-10-09T10:16:08;20.27;;;10.45;;
39674;SDS011;27790;50.840;4.386;2023-10-09T10:18:54;22.88;;;10.75;;
39674;SDS011;27790;50.840;4.386;2023-10-09T10:21:35;21.85;;;10.75;;
39674;SDS011;27790;50.840;4.386;2023-10-09T10:29:35;27.73;;;11.43;;
39674;SDS011;27790;50.840;4.386;2023-10-09T10:32:03;42.22;;;12.40;;
39674;SDS011;27790;50.840;4.386;2023-10-09T10:37:20;23.50;;;10.82;;
39674;SDS011;27790;50.840;4.386;2023-10-09T10:39:53;37.00;;;12.05;;
39674;SDS011;27790;50.840;4.386;2023-10-09T10:42:24;23.80;;;11.43;;
39674;SDS011;27790;50.840;4.386;2023-10-09T10:45:02;28.95;;;11.27;;
39674;SDS011;27790;50.840;4.386;2023-10-09T10:47:48;26.65;;;11.10;;
39674;SDS011;27790;50.840;4.386;2023-10-09T10:50:20;20.05;;;12.18;;
39674;SDS011;27790;50.840;4.386;2023-10-09T10:53:15;35.92;;;12.57;;
39674;SDS011;27790;50.840;4.386;2023-10-09T10:56:00;21.95;;;10.52;;
39674;SDS011;27790;50.840;4.386;2023-10-09T10:58:41;28.08;;;10.55;;
39674;SDS011;27790;50.840;4.386;2023-10-09T11:01:34;40.65;;;11.90;;
39674;SDS011;27790;50.840;4.386;2023-10-09T11:04:24;31.85;;;12.05;;
39674;SDS011;27790;50.840;4.386;2023-10-09T11:06:57;29.80;;;11.25;;
39674;SDS011;27790;50.840;4.386;2023-10-09T11:12:27;22.75;;;12.00;;
39674;SDS011;27790;50.840;4.386;2023-10-09T11:18:19;18.20;;;10.48;;
39674;SDS011;27790;50.840;4.386;2023-10-09T11:20:51;20.40;;;10.23;;
39674;SDS011;27790;50.840;4.386;2023-10-09T11:23:27;19.25;;;9.65;;
39674;SDS011;27790;50.840;4.386;2023-10-09T11:25:59;22.85;;;10.13;;
39674;SDS011;27790;50.840;4.386;2023-10-09T11:32:03;22.30;;;10.18;;
39674;SDS011;27790;50.840;4.386;2023-10-09T11:34:30;24.55;;;10.30;;
39674;SDS011;27790;50.840;4.386;2023-10-09T11:39:29;30.60;;;10.10;;
39674;SDS011;27790;50.840;4.386;2023-10-09T11:42:06;17.95;;;11.00;;
39674;SDS011;27790;50.840;4.386;2023-10-09T11:44:42;29.45;;;12.38;;
39674;SDS011;27790;50.840;4.386;2023-10-09T11:47:10;23.77;;;10.65;;
39674;SDS011;27790;50.840;4.386;2023-10-09T11:49:53;17.38;;;10.23;;
39674;SDS011;27790;50.840;4.386;2023-10-09T11:52:32;15.68;;;9.55;;
39674;SDS011;27790;50.840;4.386;2023-10-09T11:55:04;28.15;;;10.48;;
39674;SDS011;27790;50.840;4.386;2023-10-09T11:57:40;17.88;;;10.43;;
39674;SDS011;27790;50.840;4.386;2023-10-09T12:00:06;16.92;;;10.18;;
39674;SDS011;27790;50.840;4.386;2023-10-09T12:02:52;18.20;;;9.45;;
39674;SDS011;27790;50.840;4.386;2023-10-09T12:05:18;20.83;;;11.02;;
39674;SDS011;27790;50.840;4.386;2023-10-09T12:07:47;19.48;;;10.23;;
39674;SDS011;27790;50.840;4.386;2023-10-09T12:10:20;18.65;;;10.35;;
39674;SDS011;27790;50.840;4.386;2023-10-09T12:12:51;13.23;;;9.25;;
39674;SDS011;27790;50.840;4.386;2023-10-09T12:15:23;18.73;;;9.52;;
39674;SDS011;27790;50.840;4.386;2023-10-09T12:17:49;18.67;;;10.35;;
39674;SDS011;27790;50.840;4.386;2023-10-09T12:20:18;17.95;;;10.50;;
39674;SDS011;27790;50.840;4.386;2023-10-09T12:23:03;16.75;;;9.10;;
39674;SDS011;27790;50.840;4.386;2023-10-09T12:25:32;23.25;;;9.38;;
39674;SDS011;27790;50.840;4.386;2023-10-09T12:28:00;18.30;;;9.57;;
39674;SDS011;27790;50.840;4.386;2023-10-09T12:30:28;14.95;;;8.85;;
39674;SDS011;27790;50.840;4.386;2023-10-09T12:32:54;19.42;;;8.70;;
39674;SDS011;27790;50.840;4.386;2023-10-09T12:35:24;17.05;;;9.43;;
39674;SDS011;27790;50.840;4.386;2023-10-09T12:37:51;18.10;;;9.27;;
39674;SDS011;27790;50.840;4.386;2023-10-09T12:40:20;14.38;;;8.70;;
39674;SDS011;27790;50.840;4.386;2023-10-09T12:42:50;15.63;;;9.32;;
39674;SDS011;27790;50.840;4.386;2023-10-09T12:45:17;22.48;;;9.18;;
39674;SDS011;27790;50.840;4.386;2023-10-09T12:47:45;14.82;;;8.68;;
39674;SDS011;27790;50.840;4.386;2023-10-09T12:50:12;16.65;;;9.90;;
39674;SDS011;27790;50.840;4.386;2023-10-09T12:52:39;19.80;;;9.32;;
39674;SDS011;27790;50.840;4.386;2023-10-09T12:55:05;16.05;;;8.48;;
39674;SDS011;27790;50.840;4.386;2023-10-09T12:57:35;17.25;;;7.65;;
39674;SDS011;27790;50.840;4.386;2023-10-09T13:00:01;25.52;;;10.02;;
39674;SDS011;27790;50.840;4.386;2023-10-09T13:02:36;14.55;;;8.68;;
39674;SDS011;27790;50.840;4.386;2023-10-09T13:05:01;18.58;;;9.30;;
39674;SDS011;27790;50.840;4.386;2023-10-09T13:07:30;16.38;;;8.45;;
39674;SDS011;27790;50.840;4.386;2023-10-09T13:09:55;15.38;;;8.35;;
39674;SDS011;27790;50.840;4.386;2023-10-09T13:12:33;24.80;;;10.65;;
39674;SDS011;27790;50.840;4.386;2023-10-09T13:15:05;19.70;;;9.00;;
39674;SDS011;27790;50.840;4.386;2023-10-09T13:17:35;17.85;;;9.38;;
39674;SDS011;27790;50.840;4.386;2023-10-09T13:20:02;13.95;;;9.75;;
39674;SDS011;27790;50.840;4.386;2023-10-09T13:22:48;18.42;;;9.25;;
39674;SDS011;27790;50.840;4.386;2023-10-09T13:25:17;17.58;;;9.52;;
39674;SDS011;27790;50.840;4.386;2023-10-09T13:27:49;15.83;;;8.57;;
39674;SDS011;27790;50.840;4.386;2023-10-09T13:30:18;21.33;;;9.55;;
39674;SDS011;27790;50.840;4.386;2023-10-09T13:32:51;16.48;;;9.25;;
39674;SDS011;27790;50.840;4.386;2023-10-09T13:35:17;32.60;;;11.70;;
39674;SDS011;27790;50.840;4.386;2023-10-09T13:37:43;22.00;;;10.88;;
39674;SDS011;27790;50.840;4.386;2023-10-09T13:40:18;16.00;;;9.20;;
39674;SDS011;27790;50.840;4.386;2023-10-09T13:42:54;20.33;;;8.95;;
39674;SDS011;27790;50.840;4.386;2023-10-09T13:45:24;23.65;;;9.52;;
39674;SDS011;27790;50.840;4.386;2023-10-09T13:47:52;15.90;;;9.25;;
39674;SDS011;27790;50.840;4.386;2023-10-09T13:50:19;16.30;;;9.73;;
39674;SDS011;27790;50.840;4.386;2023-10-09T13:52:48;16.80;;;9.00;;
39674;SDS011;27790;50.840;4.386;2023-10-09T13:55:13;20.83;;;9.32;;
39674;SDS011;27790;50.840;4.386;2023-10-09T13:57:45;18.30;;;9.95;;
39674;SDS011;27790;50.840;4.386;2023-10-09T14:00:19;23.95;;;9.93;;
39674;SDS011;27790;50.840;4.386;2023-10-09T14:02:58;16.15;;;9.50;;
39674;SDS011;27790;50.840;4.386;2023-10-09T14:05:27;17.45;;;8.98;;
39674;SDS011;27790;50.840;4.386;2023-10-09T14:07:53;21.77;;;9.65;;
39674;SDS011;27790;50.840;4.386;2023-10-09T14:10:25;27.33;;;9.88;;
39674;SDS011;27790;50.840;4.386;2023-10-09T14:12:55;18.92;;;9.18;;
39674;SDS011;27790;50.840;4.386;2023-10-09T14:15:22;18.17;;;10.20;;
39674;SDS011;27790;50.840;4.386;2023-10-09T14:17:48;19.20;;;10.00;;
39674;SDS011;27790;50.840;4.386;2023-10-09T14:20:20;24.27;;;9.52;;
39674;SDS011;27790;50.840;4.386;2023-10-09T14:23:00;23.80;;;10.32;;
39674;SDS011;27790;50.840;4.386;2023-10-09T14:25:31;19.27;;;11.70;;
39674;SDS011;27790;50.840;4.386;2023-10-09T14:27:58;18.52;;;9.52;;
39674;SDS011;27790;50.840;4.386;2023-10-09T14:30:24;17.08;;;10.13;;
39674;SDS011;27790;50.840;4.386;2023-10-09T14:32:56;20.08;;;10.27;;
39674;SDS011;27790;50.840;4.386;2023-10-09T14:35:22;17.63;;;9.82;;
39674;SDS011;27790;50.840;4.386;2023-10-09T14:37:52;15.35;;;9.50;;
39674;SDS011;27790;50.840;4.386;2023-10-09T14:40:18;14.98;;;8.85;;
39674;SDS011;27790;50.840;4.386;2023-10-09T14:42:55;17.40;;;9.23;;
39674;SDS011;27790;50.840;4.386;2023-10-09T14:45:23;16.27;;;10.25;;
39674;SDS011;27790;50.840;4.386;2023-10-09T14:47:51;22.27;;;11.05;;
39674;SDS011;27790;50.840;4.386;2023-10-09T14:50:18;17.50;;;9.13;;
39674;SDS011;27790;50.840;4.386;2023-10-09T14:52:47;19.88;;;10.98;;
39674;SDS011;27790;50.840;4.386;2023-10-09T14:55:15;19.48;;;10.27;;
39674;SDS011;27790;50.840;4.386;2023-10-09T14:57:46;17.50;;;11.00;;
39674;SDS011;27790;50.840;4.386;2023-10-09T15:00:12;20.23;;;11.43;;
39674;SDS011;27790;50.840;4.386;2023-10-09T15:02:39;18.30;;;10.38;;
39674;SDS011;27790;50.840;4.386;2023-10-09T15:05:05;15.57;;;10.13;;
39674;SDS011;27790;50.840;4.386;2023-10-09T15:07:35;19.42;;;10.77;;
39674;SDS011;27790;50.840;4.386;2023-10-09T15:10:04;20.33;;;9.75;;
39674;SDS011;27790;50.840;4.386;2023-10-09T15:12:30;23.27;;;11.18;;
39674;SDS011;27790;50.840;4.386;2023-10-09T15:14:56;20.08;;;9.93;;
39674;SDS011;27790;50.840;4.386;2023-10-09T15:17:22;17.92;;;10.30;;
39674;SDS011;27790;50.840;4.386;2023-10-09T15:19:49;22.80;;;10.82;;
39674;SDS011;27790;50.840;4.386;2023-10-09T15:22:21;15.93;;;11.02;;
39674;SDS011;27790;50.840;4.386;2023-10-09T15:24:47;18.50;;;9.60;;
39674;SDS011;27790;50.840;4.386;2023-10-09T15:27:13;20.90;;;10.05;;
39674;SDS011;27790;50.840;4.386;2023-10-09T15:29:40;19.05;;;10.02;;
39674;SDS011;27790;50.840;4.386;2023-10-09T15:32:09;16.85;;;11.10;;
39674;SDS011;27790;50.840;4.386;2023-10-09T15:34:47;21.88;;;11.05;;
39674;SDS011;27790;50.840;4.386;2023-10-09T15:37:13;18.95;;;10.55;;
39674;SDS011;27790;50.840;4.386;2023-10-09T15:39:38;18.17;;;10.65;;
39674;SDS011;27790;50.840;4.386;2023-10-09T15:42:04;19.52;;;11.27;;